Time;durP1;ratioP1;P1;durP2;ratioP2;P2;SDS_P1;SDS_P2;PMS_P1;PMS_P2;Temp;Humidity;BMP_temperature;BMP_pressure;BME280_temperature;BME280_humidity;BME280_pressure;Samples;Min_cycle;Max_cycle;Signal;HPM_P1;HPM_P2
2022/04/21 00:02:16;;;;;;;7.25;6.65;;;;;;;;;;5096908;28;20203;-55
2022/04/21 00:04:43;;;;;;;6.90;6.40;;;;;;;;;;5097011;28;20215;-55
2022/04/21 00:07:11;;;;;;;7.13;6.63;;;;;;;;;;5110234;28;20210;-55
2022/04/21 00:09:38;;;;;;;6.70;6.20;;;;;;;;;;5117882;28;20202;-55
2022/04/21 00:12:06;;;;;;;6.05;5.65;;;;;;;;;;5117733;28;20225;-55
2022/04/21 00:14:35;;;;;;;6.85;6.35;;;;;;;;;;5117562;28;20207;-55
2022/04/21 00:17:02;;;;;;;6.55;6.05;;;;;;;;;;5117616;28;20221;-55
2022/04/21 00:19:29;;;;;;;5.90;5.50;;;;;;;;;;5117614;28;20194;-55
2022/04/21 00:24:42;;;;;;;6.70;6.20;;;;;;;;;;5117209;28;20244;-55
2022/04/21 00:27:09;;;;;;;6.03;5.60;;;;;;;;;;5117088;28;20213;-55
2022/04/21 00:29:38;;;;;;;5.80;5.40;;;;;;;;;;5117801;28;20630;-55
2022/04/21 00:32:06;;;;;;;5.75;5.35;;;;;;;;;;5101734;28;20239;-55
2022/04/21 00:34:34;;;;;;;5.85;5.45;;;;;;;;;;5107174;28;20199;-55
2022/04/21 00:37:01;;;;;;;5.65;5.25;;;;;;;;;;5117424;28;20195;-55
2022/04/21 00:39:30;;;;;;;5.32;4.93;;;;;;;;;;5106438;28;20195;-55
2022/04/21 00:41:58;;;;;;;5.50;5.10;;;;;;;;;;5117351;28;20230;-55
2022/04/21 00:44:26;;;;;;;5.60;5.20;;;;;;;;;;5117724;28;20572;-55
2022/04/21 00:46:55;;;;;;;5.28;4.95;;;;;;;;;;5117711;28;20202;-55
2022/04/21 00:49:23;;;;;;;5.07;4.78;;;;;;;;;;5117079;28;20495;-55
2022/04/21 00:51:50;;;;;;;5.22;4.82;;;;;;;;;;5116766;28;20219;-55
2022/04/21 00:54:18;;;;;;;4.82;4.53;;;;;;;;;;5107688;28;20195;-55
2022/04/21 00:56:46;;;;;;;4.80;4.50;;;;;;;;;;5117507;28;20202;-56
2022/04/21 00:59:14;;;;;;;4.70;4.40;;;;;;;;;;5117577;28;20195;-55
2022/04/21 01:04:28;;;;;;;4.75;4.45;;;;;;;;;;5117119;28;20282;-55
2022/04/21 01:06:56;;;;;;;4.70;4.40;;;;;;;;;;5117344;28;20587;-55
2022/04/21 01:09:23;;;;;;;4.53;4.22;;;;;;;;;;5099947;28;20199;-56
2022/04/21 01:11:51;;;;;;;4.85;4.55;;;;;;;;;;5097273;28;20199;-55
2022/04/21 01:14:19;;;;;;;4.68;4.38;;;;;;;;;;5098582;28;20268;-55
2022/04/21 01:16:47;;;;;;;4.30;4.00;;;;;;;;;;5097076;28;20509;-55
2022/04/21 01:19:15;;;;;;;4.28;3.97;;;;;;;;;;5102793;28;20235;-55
2022/04/21 01:21:44;;;;;;;3.95;3.67;;;;;;;;;;5117242;28;20317;-55
2022/04/21 01:24:11;;;;;;;4.28;3.97;;;;;;;;;;5113329;28;20215;-55
2022/04/21 01:26:39;;;;;;;4.10;3.80;;;;;;;;;;5117301;28;20198;-55
2022/04/21 01:29:06;;;;;;;3.92;3.63;;;;;;;;;;5112565;28;20230;-55
2022/04/21 01:31:34;;;;;;;4.20;3.90;;;;;;;;;;5097335;28;20204;-55
2022/04/21 01:34:01;;;;;;;4.60;4.30;;;;;;;;;;5097424;28;20219;-55
2022/04/21 01:36:28;;;;;;;4.20;3.90;;;;;;;;;;5097678;28;20214;-55
2022/04/21 01:41:42;;;;;;;3.60;3.40;;;;;;;;;;5100190;28;20234;-55
2022/04/21 01:44:10;;;;;;;4.05;3.75;;;;;;;;;;5102292;28;20202;-55
2022/04/21 01:46:37;;;;;;;3.95;3.65;;;;;;;;;;5117086;28;20206;-55
2022/04/21 01:49:05;;;;;;;3.35;3.15;;;;;;;;;;5112954;28;20604;-55
2022/04/21 01:51:32;;;;;;;3.70;3.40;;;;;;;;;;5096503;28;20232;-55
2022/04/21 01:54:01;;;;;;;3.53;3.33;;;;;;;;;;5096610;28;20199;-55
2022/04/21 01:56:28;;;;;;;3.67;3.47;;;;;;;;;;5104590;28;20207;-55
2022/04/21 01:58:56;;;;;;;3.35;3.15;;;;;;;;;;5109505;28;20210;-55
2022/04/21 02:01:23;;;;;;;3.50;3.30;;;;;;;;;;5117371;28;20521;-55
2022/04/21 02:03:50;;;;;;;3.47;3.28;;;;;;;;;;5108968;28;20509;-55
2022/04/21 02:06:18;;;;;;;3.42;3.22;;;;;;;;;;5096593;28;20215;-55
2022/04/21 02:08:46;;;;;;;3.50;3.30;;;;;;;;;;5096849;28;20488;-55
2022/04/21 02:11:15;;;;;;;3.60;3.40;;;;;;;;;;5097128;28;20200;-55
2022/04/21 02:13:43;;;;;;;3.20;3.00;;;;;;;;;;5097018;28;20200;-55
2022/04/21 02:16:10;;;;;;;3.20;3.00;;;;;;;;;;5105802;28;20203;-55
2022/04/21 02:18:38;;;;;;;3.38;3.17;;;;;;;;;;5117940;28;20214;-56
2022/04/21 02:21:05;;;;;;;2.90;2.70;;;;;;;;;;5120645;28;20249;-55
2022/04/21 02:23:32;;;;;;;3.20;3.00;;;;;;;;;;5120554;28;20214;-55
2022/04/21 02:26:00;;;;;;;3.20;3.00;;;;;;;;;;5120831;28;20202;-55
2022/04/21 02:28:29;;;;;;;3.08;2.88;;;;;;;;;;5109888;28;20199;-55
2022/04/21 02:30:56;;;;;;;3.17;2.97;;;;;;;;;;5118340;28;20269;-55
2022/04/21 02:33:23;;;;;;;3.25;3.05;;;;;;;;;;5119988;28;20213;-55
2022/04/21 02:35:51;;;;;;;3.35;3.15;;;;;;;;;;5110356;28;20218;-55
2022/04/21 02:38:19;;;;;;;2.95;2.75;;;;;;;;;;5108006;28;20272;-55
2022/04/21 02:40:46;;;;;;;2.97;2.78;;;;;;;;;;5104198;28;20224;-55
2022/04/21 02:43:13;;;;;;;2.67;2.47;;;;;;;;;;5099470;28;20215;-55
2022/04/21 02:45:42;;;;;;;3.05;2.85;;;;;;;;;;5099526;28;20200;-55
2022/04/21 02:48:10;;;;;;;2.90;2.70;;;;;;;;;;5099502;28;20207;-55
2022/04/21 02:50:40;;;;;;;2.80;2.60;;;;;;;;;;5099608;28;20192;-55
2022/04/21 02:53:07;;;;;;;2.72;2.53;;;;;;;;;;5098993;28;20235;-55
2022/04/21 02:58:28;;;;;;;2.88;2.67;;;;;;;;;;5036725;28;20858;-55
2022/04/21 03:00:57;;;;;;;3.10;2.90;;;;;;;;;;5108549;28;20316;-55
2022/04/21 03:03:24;;;;;;;3.00;2.80;;;;;;;;;;5119008;28;20663;-55
2022/04/21 03:05:52;;;;;;;2.80;2.60;;;;;;;;;;5119550;28;20588;-55
2022/04/21 03:08:19;;;;;;;2.88;2.67;;;;;;;;;;5110388;28;20196;-56
2022/04/21 03:10:47;;;;;;;2.55;2.45;;;;;;;;;;5118172;28;20222;-55
2022/04/21 03:13:14;;;;;;;2.55;2.45;;;;;;;;;;5118993;28;20202;-55
2022/04/21 03:15:41;;;;;;;2.78;2.58;;;;;;;;;;5118877;28;20209;-56
2022/04/21 03:18:10;;;;;;;2.72;2.53;;;;;;;;;;5119501;28;20583;-56
2022/04/21 03:26:07;;;;;;;2.60;2.40;;;;;;;;;;5083483;28;20475;-55
2022/04/21 03:28:34;;;;;;;2.60;2.40;;;;;;;;;;5100032;28;20199;-55
2022/04/21 03:31:02;;;;;;;2.45;2.35;;;;;;;;;;5114374;28;20471;-56
2022/04/21 03:33:31;;;;;;;2.53;2.40;;;;;;;;;;5118755;28;20210;-55
2022/04/21 03:35:58;;;;;;;2.80;2.60;;;;;;;;;;5117840;28;20199;-56
2022/04/21 03:38:26;;;;;;;2.22;2.13;;;;;;;;;;5107419;28;20208;-55
2022/04/21 03:40:53;;;;;;;2.25;2.15;;;;;;;;;;5105076;28;20235;-55
2022/04/21 03:43:20;;;;;;;2.38;2.28;;;;;;;;;;5099264;28;20215;-55
2022/04/21 03:45:48;;;;;;;2.17;2.08;;;;;;;;;;5098073;28;20200;-55
2022/04/21 03:48:16;;;;;;;2.15;2.05;;;;;;;;;;5098947;28;20213;-56
2022/04/21 03:50:44;;;;;;;2.30;2.20;;;;;;;;;;5116013;28;20589;-55
2022/04/21 03:53:12;;;;;;;2.60;2.40;;;;;;;;;;5118209;28;20475;-56
2022/04/21 03:55:39;;;;;;;2.40;2.30;;;;;;;;;;5098305;28;20597;-55
2022/04/21 03:58:07;;;;;;;2.58;2.38;;;;;;;;;;5097918;28;20205;-55
2022/04/21 04:00:34;;;;;;;2.40;2.30;;;;;;;;;;5109987;28;20195;-55
2022/04/21 04:03:02;;;;;;;2.30;2.20;;;;;;;;;;5078124;28;20597;-56
2022/04/21 04:05:29;;;;;;;2.10;2.00;;;;;;;;;;5090936;28;20205;-55
2022/04/21 04:10:52;;;;;;;2.30;2.20;;;;;;;;;;5096706;28;20198;-55
2022/04/21 04:13:20;;;;;;;2.13;2.03;;;;;;;;;;5097108;28;20214;-55
2022/04/21 04:15:48;;;;;;;2.28;2.10;;;;;;;;;;5097099;28;20302;-55
2022/04/21 04:18:15;;;;;;;2.10;2.00;;;;;;;;;;5109130;28;20191;-55
2022/04/21 04:20:43;;;;;;;2.03;1.92;;;;;;;;;;5116898;28;20231;-55
2022/04/21 04:23:12;;;;;;;1.92;1.83;;;;;;;;;;5096778;28;20211;-55
2022/04/21 04:25:39;;;;;;;2.10;1.90;;;;;;;;;;5096711;28;20277;-55
2022/04/21 04:28:07;;;;;;;2.08;1.90;;;;;;;;;;5096811;28;20616;-55
2022/04/21 04:30:34;;;;;;;2.10;2.00;;;;;;;;;;5096128;28;20204;-55
2022/04/21 04:33:02;;;;;;;1.60;1.50;;;;;;;;;;5096645;28;20211;-55
2022/04/21 04:35:29;;;;;;;2.55;2.35;;;;;;;;;;5096257;28;20492;-55
2022/04/21 04:37:57;;;;;;;1.90;1.80;;;;;;;;;;5096833;28;20543;-55
2022/04/21 04:40:26;;;;;;;2.03;1.92;;;;;;;;;;5107132;28;20214;-55
2022/04/21 04:42:53;;;;;;;2.25;2.05;;;;;;;;;;5101967;28;20636;-55
2022/04/21 04:48:06;;;;;;;2.00;1.90;;;;;;;;;;5096556;28;20198;-55
2022/04/21 04:50:34;;;;;;;2.10;2.00;;;;;;;;;;5103028;28;20214;-55
2022/04/21 04:53:01;;;;;;;2.00;1.90;;;;;;;;;;5096593;28;20231;-55
2022/04/21 04:55:31;;;;;;;1.92;1.83;;;;;;;;;;5096265;28;20225;-55
2022/04/21 04:57:58;;;;;;;1.80;1.70;;;;;;;;;;5078926;28;20276;-55
2022/04/21 05:00:28;;;;;;;1.90;1.80;;;;;;;;;;5115770;28;20199;-55
2022/04/21 05:02:56;;;;;;;1.92;1.83;;;;;;;;;;5114671;28;20227;-55
2022/04/21 05:05:23;;;;;;;2.13;2.03;;;;;;;;;;5096419;28;20250;-55
2022/04/21 05:07:50;;;;;;;1.73;1.63;;;;;;;;;;5102445;28;20513;-56
2022/04/21 05:10:19;;;;;;;2.17;2.08;;;;;;;;;;5115832;28;20214;-55
2022/04/21 05:12:48;;;;;;;1.90;1.80;;;;;;;;;;5114582;28;20222;-55
2022/04/21 05:15:17;;;;;;;2.08;1.98;;;;;;;;;;5114970;28;20710;-55
2022/04/21 05:17:45;;;;;;;1.95;1.85;;;;;;;;;;5112718;28;20219;-55
2022/04/21 05:20:13;;;;;;;1.90;1.80;;;;;;;;;;5112070;28;20553;-55
2022/04/21 05:22:45;;;;;;;1.90;1.80;;;;;;;;;;5095217;28;20225;-56
2022/04/21 05:25:13;;;;;;;1.75;1.65;;;;;;;;;;5110788;28;20487;-55
2022/04/21 05:27:41;;;;;;;1.92;1.83;;;;;;;;;;5115517;28;20301;-55
2022/04/21 05:32:59;;;;;;;1.63;1.52;;;;;;;;;;5107546;28;20657;-55
2022/04/21 05:35:26;;;;;;;1.85;1.75;;;;;;;;;;5107872;28;20499;-55
2022/04/21 05:37:54;;;;;;;1.92;1.80;;;;;;;;;;5101101;28;20353;-55
2022/04/21 05:40:22;;;;;;;1.60;1.50;;;;;;;;;;5114484;28;20195;-55
2022/04/21 05:42:51;;;;;;;1.77;1.67;;;;;;;;;;5110586;28;20219;-55
2022/04/21 05:45:20;;;;;;;1.90;1.80;;;;;;;;;;5097443;28;20207;-55
2022/04/21 05:47:47;;;;;;;1.60;1.50;;;;;;;;;;5115173;28;20437;-55
2022/04/21 05:50:16;;;;;;;1.65;1.55;;;;;;;;;;5114785;28;20200;-55
2022/04/21 05:52:45;;;;;;;1.98;1.88;;;;;;;;;;5115457;28;20290;-55
2022/04/21 05:55:15;;;;;;;1.67;1.58;;;;;;;;;;5118442;28;20214;-55
2022/04/21 05:57:43;;;;;;;1.80;1.70;;;;;;;;;;5106604;28;20222;-55
2022/04/21 06:00:12;;;;;;;1.70;1.60;;;;;;;;;;5106570;28;20287;-55
2022/04/21 06:02:41;;;;;;;1.70;1.60;;;;;;;;;;5104053;28;20449;-55
2022/04/21 06:05:09;;;;;;;1.80;1.70;;;;;;;;;;5118644;28;20203;-55
2022/04/21 06:07:36;;;;;;;1.60;1.50;;;;;;;;;;5118705;28;20203;-56
2022/04/21 06:10:04;;;;;;;1.70;1.60;;;;;;;;;;5118605;28;20213;-56
2022/04/21 06:12:34;;;;;;;1.70;1.60;;;;;;;;;;5115954;28;20245;-55
2022/04/21 06:15:01;;;;;;;1.92;1.60;;;;;;;;;;5105803;28;20262;-56
2022/04/21 06:17:29;;;;;;;1.75;1.50;;;;;;;;;;5116834;28;20195;-55
2022/04/21 06:19:57;;;;;;;1.83;1.73;;;;;;;;;;5098604;28;20200;-55
2022/04/21 06:22:25;;;;;;;1.67;1.58;;;;;;;;;;5099172;28;20224;-55
2022/04/21 06:24:52;;;;;;;1.58;1.48;;;;;;;;;;5099287;28;20294;-55
2022/04/21 06:27:20;;;;;;;2.15;1.92;;;;;;;;;;5099373;28;20636;-56
2022/04/21 06:29:47;;;;;;;1.70;1.60;;;;;;;;;;5099559;28;20218;-55
2022/04/21 06:32:15;;;;;;;1.50;1.40;;;;;;;;;;5098611;28;20202;-55
2022/04/21 06:34:42;;;;;;;1.65;1.55;;;;;;;;;;5099226;28;20499;-55
2022/04/21 06:37:11;;;;;;;1.75;1.60;;;;;;;;;;5100479;28;20218;-55
2022/04/21 06:39:38;;;;;;;1.88;1.77;;;;;;;;;;5117832;28;20201;-55
2022/04/21 06:42:06;;;;;;;1.70;1.60;;;;;;;;;;5100332;28;20238;-55
2022/04/21 06:50:04;;;;;;;1.67;1.58;;;;;;;;;;5099888;28;20198;-55
2022/04/21 06:52:33;;;;;;;1.58;1.35;;;;;;;;;;5095874;28;20483;-55
2022/04/21 06:55:01;;;;;;;1.70;1.60;;;;;;;;;;5081403;28;20307;-55
2022/04/21 06:57:29;;;;;;;1.48;1.38;;;;;;;;;;5075873;28;20307;-56
2022/04/21 06:59:56;;;;;;;1.73;1.63;;;;;;;;;;5089171;28;20199;-55
2022/04/21 07:02:28;;;;;;;2.05;1.65;;;;;;;;;;5096387;28;20220;-55
2022/04/21 07:04:55;;;;;;;1.90;1.70;;;;;;;;;;5093893;28;20200;-55
2022/04/21 07:07:22;;;;;;;1.60;1.50;;;;;;;;;;5086246;28;20220;-55
2022/04/21 07:09:53;;;;;;;1.50;1.40;;;;;;;;;;5076107;28;20192;-55
2022/04/21 07:12:21;;;;;;;1.98;1.52;;;;;;;;;;5082447;28;20188;-55
2022/04/21 07:14:49;;;;;;;1.80;1.70;;;;;;;;;;5096420;28;20462;-55
2022/04/21 07:17:16;;;;;;;1.92;1.80;;;;;;;;;;5096407;28;20199;-56
2022/04/21 07:19:44;;;;;;;1.80;1.70;;;;;;;;;;5095730;28;20488;-55
2022/04/21 07:22:12;;;;;;;1.65;1.55;;;;;;;;;;5086664;28;20227;-55
2022/04/21 07:24:39;;;;;;;1.90;1.60;;;;;;;;;;5075669;28;20210;-56
2022/04/21 07:27:08;;;;;;;1.90;1.60;;;;;;;;;;5075930;28;20218;-55
2022/04/21 07:29:36;;;;;;;3.83;1.83;;;;;;;;;;5076751;28;20210;-56
2022/04/21 07:32:03;;;;;;;1.98;1.70;;;;;;;;;;5077090;28;20214;-55
2022/04/21 07:34:31;;;;;;;1.90;1.80;;;;;;;;;;5085562;28;20198;-55
2022/04/21 07:36:58;;;;;;;2.00;1.80;;;;;;;;;;5077452;28;20510;-55
2022/04/21 07:39:26;;;;;;;1.50;1.40;;;;;;;;;;5076851;28;20295;-56
2022/04/21 07:41:53;;;;;;;2.10;1.90;;;;;;;;;;5090905;28;20239;-55
2022/04/21 07:44:22;;;;;;;1.92;1.67;;;;;;;;;;5085589;28;20196;-56
2022/04/21 07:46:50;;;;;;;1.85;1.70;;;;;;;;;;5077780;28;20475;-55
2022/04/21 07:54:43;;;;;;;2.17;1.98;;;;;;;;;;5091675;28;20516;-55
2022/04/21 07:57:11;;;;;;;1.60;1.50;;;;;;;;;;5093843;28;20264;-55
2022/04/21 07:59:40;;;;;;;2.72;1.83;;;;;;;;;;5086761;28;20192;-55
2022/04/21 08:02:08;;;;;;;1.75;1.65;;;;;;;;;;5087345;28;20200;-55
2022/04/21 08:04:37;;;;;;;1.73;1.63;;;;;;;;;;5077031;28;20203;-55
2022/04/21 08:07:05;;;;;;;2.28;1.58;;;;;;;;;;5095810;28;20297;-55
2022/04/21 08:09:33;;;;;;;1.70;1.60;;;;;;;;;;5095590;28;20214;-55
2022/04/21 08:12:00;;;;;;;1.63;1.52;;;;;;;;;;5094393;28;20516;-55
2022/04/21 08:14:28;;;;;;;1.80;1.70;;;;;;;;;;5094466;28;20195;-55
2022/04/21 08:16:57;;;;;;;1.92;1.80;;;;;;;;;;5086406;28;20269;-56
2022/04/21 08:19:28;;;;;;;1.70;1.60;;;;;;;;;;5094647;28;20499;-55
2022/04/21 08:21:55;;;;;;;1.98;1.73;;;;;;;;;;5094805;28;20203;-62
2022/04/21 08:32:41;;;;;;;1.50;1.40;;;;;;;;;;5074192;28;20195;-55
2022/04/21 08:35:09;;;;;;;1.65;1.55;;;;;;;;;;5074807;28;20567;-55
2022/04/21 08:37:37;;;;;;;1.52;1.42;;;;;;;;;;5079695;28;20498;-55
2022/04/21 08:40:06;;;;;;;1.80;1.70;;;;;;;;;;5083115;28;20616;-55
2022/04/21 08:42:36;;;;;;;1.80;1.70;;;;;;;;;;5093411;28;20621;-56
2022/04/21 08:45:04;;;;;;;1.50;1.40;;;;;;;;;;5077186;28;20201;-55
2022/04/21 08:47:33;;;;;;;1.75;1.65;;;;;;;;;;5072667;28;20204;-55
2022/04/21 08:50:05;;;;;;;1.73;1.38;;;;;;;;;;5081441;28;20268;-55
2022/04/21 08:52:34;;;;;;;1.80;1.70;;;;;;;;;;5054188;28;20310;-55
2022/04/21 08:55:02;;;;;;;1.73;1.63;;;;;;;;;;5069957;28;20567;-56
2022/04/21 08:57:30;;;;;;;2.22;1.80;;;;;;;;;;5074113;28;20196;-55
2022/04/21 08:59:58;;;;;;;1.83;1.73;;;;;;;;;;5086294;28;20672;-54
2022/04/21 09:02:34;;;;;;;1.60;1.50;;;;;;;;;;5093523;28;20230;-55
2022/04/21 09:05:04;;;;;;;1.90;1.80;;;;;;;;;;5085845;28;20218;-54
2022/04/21 09:07:32;;;;;;;1.73;1.63;;;;;;;;;;5091616;28;20199;-54
2022/04/21 09:10:07;;;;;;;3.38;1.60;;;;;;;;;;5072447;28;20230;-54
2022/04/21 09:12:36;;;;;;;2.15;1.70;;;;;;;;;;5086200;28;20195;-54
2022/04/21 09:15:07;;;;;;;2.45;1.70;;;;;;;;;;5087571;28;20202;-54
2022/04/21 09:17:39;;;;;;;2.47;1.80;;;;;;;;;;5072625;28;20219;-54
2022/04/21 09:20:09;;;;;;;2.63;1.77;;;;;;;;;;5072133;28;20200;-54
2022/04/21 09:22:36;;;;;;;1.95;1.80;;;;;;;;;;5073012;28;20216;-54
2022/04/21 09:25:04;;;;;;;2.78;1.77;;;;;;;;;;5073554;28;20204;-54
2022/04/21 09:27:42;;;;;;;1.95;1.77;;;;;;;;;;5073444;28;20458;-54
2022/04/21 09:30:12;;;;;;;2.08;1.88;;;;;;;;;;5076913;28;20635;-54
2022/04/21 09:32:40;;;;;;;2.10;1.90;;;;;;;;;;5075452;28;20193;-54
2022/04/21 09:35:10;;;;;;;1.85;1.75;;;;;;;;;;5090250;28;20728;-54
2022/04/21 09:37:48;;;;;;;1.77;1.67;;;;;;;;;;5091991;28;20349;-55
2022/04/21 09:40:16;;;;;;;1.80;1.70;;;;;;;;;;5091064;28;20191;-55
2022/04/21 09:42:44;;;;;;;3.15;1.65;;;;;;;;;;5092331;28;20220;-54
2022/04/21 09:47:57;;;;;;;1.80;1.70;;;;;;;;;;5096157;28;20195;-54
2022/04/21 09:50:27;;;;;;;1.90;1.80;;;;;;;;;;5095738;28;20199;-55
2022/04/21 09:52:55;;;;;;;2.30;1.80;;;;;;;;;;5095058;28;20224;-56
2022/04/21 09:55:23;;;;;;;2.40;1.83;;;;;;;;;;5096817;28;20192;-54
2022/04/21 09:57:54;;;;;;;2.08;1.70;;;;;;;;;;5097721;28;20203;-54
2022/04/21 10:00:22;;;;;;;2.10;1.73;;;;;;;;;;5083358;28;20204;-54
2022/04/21 10:02:53;;;;;;;2.00;1.90;;;;;;;;;;5097022;28;20651;-54
2022/04/21 10:05:21;;;;;;;2.38;1.80;;;;;;;;;;5096180;28;20192;-54
2022/04/21 10:07:51;;;;;;;1.85;1.67;;;;;;;;;;5097522;28;20211;-54
2022/04/21 10:10:20;;;;;;;2.17;1.70;;;;;;;;;;5098690;28;20213;-56
2022/04/21 10:12:49;;;;;;;2.05;1.70;;;;;;;;;;5096833;28;20281;-55
2022/04/21 10:15:17;;;;;;;2.15;1.80;;;;;;;;;;5095792;28;20200;-54
2022/04/21 10:17:44;;;;;;;2.50;1.90;;;;;;;;;;5095369;28;20355;-54
2022/04/21 10:20:12;;;;;;;2.00;1.80;;;;;;;;;;5095435;28;20221;-54
2022/04/21 10:22:40;;;;;;;1.80;1.70;;;;;;;;;;5096379;28;20200;-54
2022/04/21 10:25:10;;;;;;;2.10;1.90;;;;;;;;;;5081140;28;20638;-54
2022/04/21 10:27:38;;;;;;;2.20;1.80;;;;;;;;;;5075539;28;20200;-54
2022/04/21 10:30:12;;;;;;;2.08;1.90;;;;;;;;;;5079150;28;20201;-54
2022/04/21 10:32:49;;;;;;;2.20;2.00;;;;;;;;;;5073949;28;20195;-54
2022/04/21 10:35:21;;;;;;;2.03;1.90;;;;;;;;;;5074993;28;20402;-55
2022/04/21 10:37:48;;;;;;;2.00;1.80;;;;;;;;;;5075350;28;20300;-55
2022/04/21 10:40:21;;;;;;;1.90;1.73;;;;;;;;;;5073077;28;20218;-54
2022/04/21 10:43:03;;;;;;;2.30;2.10;;;;;;;;;;5073722;28;20303;-54
2022/04/21 10:45:31;;;;;;;2.63;1.90;;;;;;;;;;5088953;28;20191;-54
2022/04/21 10:48:09;;;;;;;2.10;1.90;;;;;;;;;;5092854;28;20494;-55
2022/04/21 10:50:37;;;;;;;1.80;1.70;;;;;;;;;;5074492;28;20199;-56
2022/04/21 10:58:53;;;;;;;2.42;1.65;;;;;;;;;;4971402;28;20192;-56
2022/04/21 11:01:31;;;;;;;2.08;1.83;;;;;;;;;;4973566;28;20343;-56
2022/04/21 11:04:09;;;;;;;2.28;1.77;;;;;;;;;;5025903;28;20228;-56
2022/04/21 11:06:41;;;;;;;1.75;1.65;;;;;;;;;;5073579;28;20199;-56
2022/04/21 11:09:09;;;;;;;2.08;1.95;;;;;;;;;;5080986;28;20580;-56
2022/04/21 11:11:47;;;;;;;2.22;2.03;;;;;;;;;;5093991;28;20192;-55
2022/04/21 11:14:31;;;;;;;1.95;1.85;;;;;;;;;;5093245;28;20188;-55
2022/04/21 11:16:59;;;;;;;1.73;1.63;;;;;;;;;;5079652;28;20196;-55
2022/04/21 11:19:36;;;;;;;1.70;1.60;;;;;;;;;;5087204;28;20200;-55
2022/04/21 11:22:04;;;;;;;2.15;1.95;;;;;;;;;;5092900;28;20203;-55
2022/04/21 11:24:46;;;;;;;1.85;1.75;;;;;;;;;;5082953;28;20221;-55
2022/04/21 11:27:16;;;;;;;2.08;1.88;;;;;;;;;;5072526;28;20231;-56
2022/04/21 11:29:44;;;;;;;2.03;1.80;;;;;;;;;;5073005;28;20475;-55
2022/04/21 11:32:16;;;;;;;1.73;1.58;;;;;;;;;;5073067;28;20480;-55
2022/04/21 11:34:44;;;;;;;1.63;1.52;;;;;;;;;;5091660;28;20208;-55
2022/04/21 11:37:11;;;;;;;1.90;1.80;;;;;;;;;;5093602;28;20469;-55
2022/04/21 11:39:39;;;;;;;2.03;1.75;;;;;;;;;;5078524;28;20192;-55
2022/04/21 11:42:06;;;;;;;1.70;1.60;;;;;;;;;;5073609;28;20656;-55
2022/04/21 11:44:38;;;;;;;1.95;1.65;;;;;;;;;;5073851;28;20231;-56
2022/04/21 11:47:06;;;;;;;1.80;1.70;;;;;;;;;;5079150;28;20581;-55
2022/04/21 11:49:34;;;;;;;1.73;1.63;;;;;;;;;;5077964;28;20211;-55
2022/04/21 11:52:01;;;;;;;1.92;1.80;;;;;;;;;;5072583;28;20232;-55
2022/04/21 11:54:28;;;;;;;1.60;1.50;;;;;;;;;;5074910;28;20212;-55
2022/04/21 11:56:56;;;;;;;2.25;1.67;;;;;;;;;;5092447;28;20581;-55
2022/04/21 11:59:35;;;;;;;2.55;1.48;;;;;;;;;;5078992;28;20200;-55
2022/04/21 12:07:36;;;;;;;1.73;1.63;;;;;;;;;;5092328;28;20203;-55
2022/04/21 12:10:06;;;;;;;1.60;1.50;;;;;;;;;;5092792;28;20481;-55
2022/04/21 12:12:34;;;;;;;1.80;1.70;;;;;;;;;;5092960;28;20203;-55
2022/04/21 12:15:01;;;;;;;1.90;1.73;;;;;;;;;;5092863;28;20302;-55
2022/04/21 12:17:33;;;;;;;1.70;1.60;;;;;;;;;;5078761;28;20249;-55
2022/04/21 12:20:03;;;;;;;1.70;1.60;;;;;;;;;;5071582;28;20204;-56
2022/04/21 12:22:33;;;;;;;1.75;1.65;;;;;;;;;;5072338;28;20200;-55
2022/04/21 12:25:00;;;;;;;1.63;1.52;;;;;;;;;;5072497;28;20274;-55
2022/04/21 12:27:29;;;;;;;1.60;1.50;;;;;;;;;;5072973;28;20267;-56
2022/04/21 12:29:58;;;;;;;1.70;1.60;;;;;;;;;;5072663;28;20200;-55
2022/04/21 12:32:27;;;;;;;1.63;1.52;;;;;;;;;;5061753;28;20188;-55
2022/04/21 12:34:56;;;;;;;1.50;1.40;;;;;;;;;;5075035;28;20196;-55
2022/04/21 12:37:28;;;;;;;1.70;1.60;;;;;;;;;;5072214;28;20196;-55
2022/04/21 12:39:55;;;;;;;1.80;1.70;;;;;;;;;;5071781;28;20204;-55
2022/04/21 12:42:23;;;;;;;1.52;1.42;;;;;;;;;;5083781;28;20200;-55
2022/04/21 12:44:51;;;;;;;1.80;1.70;;;;;;;;;;5090700;28;20488;-55
2022/04/21 12:47:19;;;;;;;1.80;1.70;;;;;;;;;;5085800;28;20220;-55
2022/04/21 12:50:07;;;;;;;1.90;1.80;;;;;;;;;;5086799;28;20196;-57
2022/04/21 12:52:37;;;;;;;1.75;1.65;;;;;;;;;;5092377;28;20243;-55
2022/04/21 12:55:06;;;;;;;1.75;1.65;;;;;;;;;;5090227;28;20223;-55
2022/04/21 12:57:33;;;;;;;1.55;1.45;;;;;;;;;;5091208;28;20202;-56
2022/04/21 13:00:00;;;;;;;1.80;1.70;;;;;;;;;;5090728;28;20207;-56
2022/04/21 13:02:28;;;;;;;1.73;1.63;;;;;;;;;;5091958;28;20207;-56
2022/04/21 13:04:57;;;;;;;1.48;1.38;;;;;;;;;;5091175;28;20505;-56
2022/04/21 13:07:25;;;;;;;1.65;1.55;;;;;;;;;;5090231;28;20207;-56
2022/04/21 13:09:53;;;;;;;1.50;1.40;;;;;;;;;;5092080;28;20202;-56
2022/04/21 13:12:21;;;;;;;1.50;1.40;;;;;;;;;;5093154;28;20199;-56
2022/04/21 13:14:51;;;;;;;1.80;1.70;;;;;;;;;;5082878;28;20291;-56
2022/04/21 13:17:21;;;;;;;1.80;1.70;;;;;;;;;;5078621;28;20199;-55
2022/04/21 13:19:48;;;;;;;1.80;1.70;;;;;;;;;;5076867;28;20581;-56
2022/04/21 13:22:15;;;;;;;1.70;1.60;;;;;;;;;;5072033;28;20480;-55
2022/04/21 13:24:42;;;;;;;1.80;1.70;;;;;;;;;;5085275;28;20585;-55
2022/04/21 13:27:15;;;;;;;1.70;1.60;;;;;;;;;;5091066;28;20203;-56
2022/04/21 13:29:43;;;;;;;1.92;1.83;;;;;;;;;;5077059;28;20196;-56
2022/04/21 13:34:57;;;;;;;1.58;1.48;;;;;;;;;;5070774;28;20195;-56
2022/04/21 13:37:25;;;;;;;1.67;1.58;;;;;;;;;;5071880;28;20204;-55
2022/04/21 13:39:52;;;;;;;1.65;1.55;;;;;;;;;;5070960;28;20204;-55
2022/04/21 13:42:21;;;;;;;1.70;1.60;;;;;;;;;;5075310;28;20215;-55
2022/04/21 13:44:48;;;;;;;1.70;1.60;;;;;;;;;;5070977;28;20400;-55
2022/04/21 13:47:16;;;;;;;1.83;1.73;;;;;;;;;;5089165;28;20343;-55
2022/04/21 13:49:43;;;;;;;2.05;1.85;;;;;;;;;;5090877;28;20214;-55
2022/04/21 13:52:12;;;;;;;1.80;1.70;;;;;;;;;;5072257;28;20228;-56
2022/04/21 13:54:39;;;;;;;1.95;1.75;;;;;;;;;;5083802;28;20196;-55
2022/04/21 13:57:07;;;;;;;1.60;1.50;;;;;;;;;;5090721;28;20291;-55
2022/04/21 13:59:36;;;;;;;1.50;1.40;;;;;;;;;;5086761;28;20200;-55
2022/04/21 14:02:03;;;;;;;1.67;1.58;;;;;;;;;;5073813;28;20201;-56
2022/04/21 14:04:31;;;;;;;1.60;1.50;;;;;;;;;;5070426;28;20239;-55
2022/04/21 14:06:58;;;;;;;1.75;1.65;;;;;;;;;;5071281;28;20205;-55
2022/04/21 14:09:27;;;;;;;1.63;1.52;;;;;;;;;;5072424;28;20197;-55
2022/04/21 14:11:58;;;;;;;1.73;1.60;;;;;;;;;;5072302;28;20308;-55
2022/04/21 14:14:28;;;;;;;1.80;1.70;;;;;;;;;;5075033;28;20599;-55
2022/04/21 14:16:56;;;;;;;2.05;1.95;;;;;;;;;;5073952;28;20433;-55
2022/04/21 14:19:24;;;;;;;1.52;1.42;;;;;;;;;;5092577;28;20204;-55
2022/04/21 14:21:51;;;;;;;1.50;1.40;;;;;;;;;;5093335;28;20207;-55
2022/04/21 14:24:18;;;;;;;1.63;1.52;;;;;;;;;;5093123;28;20524;-55
2022/04/21 14:26:46;;;;;;;1.50;1.40;;;;;;;;;;5093775;28;20215;-55
2022/04/21 14:29:13;;;;;;;1.60;1.50;;;;;;;;;;5092210;28;20200;-55
2022/04/21 14:31:40;;;;;;;1.40;1.30;;;;;;;;;;5094353;28;20203;-55
2022/04/21 14:34:10;;;;;;;1.75;1.65;;;;;;;;;;5092611;28;20241;-55
2022/04/21 14:36:37;;;;;;;1.50;1.40;;;;;;;;;;5094616;28;20204;-55
2022/04/21 14:44:36;;;;;;;1.42;1.33;;;;;;;;;;5093506;28;20226;-55
2022/04/21 14:47:05;;;;;;;1.70;1.60;;;;;;;;;;5081891;28;20681;-56
2022/04/21 14:49:35;;;;;;;1.63;1.50;;;;;;;;;;5081258;28;20211;-55
2022/04/21 14:52:03;;;;;;;1.70;1.60;;;;;;;;;;5085579;28;20812;-55
2022/04/21 14:54:31;;;;;;;1.70;1.60;;;;;;;;;;5077267;28;20254;-55
2022/04/21 14:56:58;;;;;;;1.70;1.60;;;;;;;;;;5093411;28;20207;-55
2022/04/21 14:59:26;;;;;;;1.80;1.70;;;;;;;;;;5080057;28;20577;-55
2022/04/21 15:01:53;;;;;;;1.60;1.50;;;;;;;;;;5073512;28;20204;-56
2022/04/21 15:04:20;;;;;;;1.80;1.70;;;;;;;;;;5085855;28;20247;-54
2022/04/21 15:06:49;;;;;;;1.90;1.63;;;;;;;;;;5094104;28;20207;-55
2022/04/21 15:09:17;;;;;;;1.75;1.50;;;;;;;;;;5091910;28;20192;-55
2022/04/21 15:11:45;;;;;;;1.50;1.40;;;;;;;;;;5092673;28;20231;-55
2022/04/21 15:14:13;;;;;;;1.55;1.45;;;;;;;;;;5093896;28;20273;-55
2022/04/21 15:16:40;;;;;;;1.67;1.58;;;;;;;;;;5093129;28;20499;-55
2022/04/21 15:19:08;;;;;;;1.80;1.70;;;;;;;;;;5082630;28;20500;-55
2022/04/21 15:21:36;;;;;;;1.83;1.70;;;;;;;;;;5072761;28;20602;-55
2022/04/21 15:24:06;;;;;;;1.75;1.65;;;;;;;;;;5089013;28;20196;-55
2022/04/21 15:26:33;;;;;;;1.80;1.67;;;;;;;;;;5094259;28;20199;-56
2022/04/21 15:29:01;;;;;;;1.75;1.65;;;;;;;;;;5093267;28;20208;-55
2022/04/21 15:31:28;;;;;;;1.55;1.45;;;;;;;;;;5094016;28;20348;-55
2022/04/21 15:33:56;;;;;;;1.70;1.60;;;;;;;;;;5094430;28;20411;-55
2022/04/21 15:36:23;;;;;;;1.60;1.50;;;;;;;;;;5092310;28;20200;-55
2022/04/21 15:38:50;;;;;;;1.70;1.60;;;;;;;;;;5073966;28;20686;-55
2022/04/21 15:41:20;;;;;;;1.70;1.60;;;;;;;;;;5072254;28;20223;-55
2022/04/21 15:43:47;;;;;;;1.85;1.58;;;;;;;;;;5078522;28;20200;-55
2022/04/21 15:46:15;;;;;;;1.92;1.73;;;;;;;;;;5085187;28;20224;-55
2022/04/21 15:48:42;;;;;;;2.20;1.90;;;;;;;;;;5075606;28;20203;-55
2022/04/21 15:51:10;;;;;;;1.73;1.63;;;;;;;;;;5075775;28;20620;-55
2022/04/21 15:59:09;;;;;;;1.80;1.70;;;;;;;;;;5040363;28;20196;-55
2022/04/21 16:01:37;;;;;;;1.80;1.70;;;;;;;;;;5067795;28;20201;-55
2022/04/21 16:04:04;;;;;;;1.63;1.52;;;;;;;;;;5071436;28;20204;-55